createdAt,value
2017-11-01T00:01:06.070Z,1020.43
2017-11-01T00:02:27.890Z,1020.43
2017-11-01T00:03:49.723Z,1020.48
2017-11-01T00:05:11.961Z,1020.45
2017-11-01T00:06:34.173Z,1020.41
2017-11-01T00:07:56.005Z,1020.4
2017-11-01T00:09:18.543Z,1020.41
2017-11-01T00:10:40.395Z,1020.43
2017-11-01T00:12:02.972Z,1020.42
2017-11-01T00:13:25.136Z,1020.41
2017-11-01T00:14:47.287Z,1020.4
2017-11-01T00:16:09.140Z,1020.34
2017-11-01T00:17:30.971Z,1020.36
2017-11-01T00:18:52.843Z,1020.34
2017-11-01T00:20:14.993Z,1020.31
2017-11-01T00:21:37.241Z,1020.33
2017-11-01T00:22:59.196Z,1020.32
2017-11-01T00:24:21.545Z,1020.32
2017-11-01T00:25:44.110Z,1020.3
2017-11-01T00:27:06.286Z,1020.3
2017-11-01T00:28:28.520Z,1020.34
2017-11-01T00:29:51.040Z,1020.31
2017-11-01T00:31:13.221Z,1020.26
2017-11-01T00:32:34.783Z,1020.28
2017-11-01T00:33:57.286Z,1020.26
2017-11-01T00:35:19.123Z,1020.26
2017-11-01T00:36:40.682Z,1020.27
2017-11-01T00:38:02.866Z,1020.27
2017-11-01T00:39:24.737Z,1020.28
2017-11-01T00:40:46.255Z,1020.23
2017-11-01T00:42:07.775Z,1020.17
2017-11-01T00:43:29.948Z,1020.21
2017-11-01T00:44:52.509Z,1020.16
2017-11-01T00:46:14.369Z,1020.2
2017-11-01T00:47:36.341Z,1020.18
2017-11-01T00:48:58.349Z,1020.14
2017-11-01T00:50:20.377Z,1020.18
2017-11-01T00:51:42.556Z,1020.21
2017-11-01T00:53:04.722Z,1020.2
2017-11-01T00:54:26.562Z,1020.18
2017-11-01T00:55:47.835Z,1020.13
2017-11-01T00:57:09.356Z,1020.15
2017-11-01T00:58:31.545Z,1020.16
2017-11-01T00:59:53.775Z,1020.2
2017-11-01T01:01:15.974Z,1020.14
2017-11-01T01:02:38.716Z,1020.17
2017-11-01T01:04:00.555Z,1020.12
2017-11-01T01:05:22.436Z,1020.07
2017-11-01T01:06:44.297Z,1020.11
2017-11-01T01:08:06.793Z,1020.11
2017-11-01T01:09:28.325Z,1020.1
2017-11-01T01:10:49.831Z,1020.06
2017-11-01T01:12:12.025Z,1020.1
2017-11-01T01:13:34.552Z,1020.09
2017-11-01T01:14:56.408Z,1020.1
2017-11-01T01:16:18.945Z,1020.07
2017-11-01T01:17:40.781Z,1020.02
2017-11-01T01:19:03.283Z,1020.06
2017-11-01T01:20:25.169Z,1020.06
2017-11-01T01:21:47.017Z,1020.06
2017-11-01T01:23:09.526Z,1020.05
2017-11-01T01:24:30.776Z,1019.99
2017-11-01T01:25:52.326Z,1019.99
2017-11-01T01:27:14.148Z,1020.02
2017-11-01T01:28:35.644Z,1020
2017-11-01T01:29:57.832Z,1020.03
2017-11-01T01:31:19.396Z,1020.01
2017-11-01T01:32:41.635Z,1020.01
2017-11-01T01:34:03.480Z,1020.06
2017-11-01T01:35:25.661Z,1020.01
2017-11-01T01:36:48.091Z,1020.01
2017-11-01T01:38:10.306Z,1020.03
2017-11-01T01:39:32.487Z,1019.95
2017-11-01T01:40:55.008Z,1019.95
2017-11-01T01:42:16.591Z,1019.99
2017-11-01T01:43:39.103Z,1019.98
2017-11-01T01:45:00.956Z,1020.02
2017-11-01T01:46:22.798Z,1019.98
2017-11-01T01:47:44.953Z,1020
2017-11-01T01:49:06.453Z,1019.99
2017-11-01T01:50:28.269Z,1019.95
2017-11-01T01:51:50.145Z,1019.96
2017-11-01T01:53:11.993Z,1019.97
2017-11-01T01:54:33.505Z,1019.97
2017-11-01T01:55:55.446Z,1019.97
2017-11-01T01:57:17.280Z,1019.96
2017-11-01T01:58:39.272Z,1019.94
2017-11-01T02:00:01.446Z,1019.98
2017-11-01T02:01:23.052Z,1019.96
2017-11-01T02:02:45.519Z,1019.93
2017-11-01T02:04:07.039Z,1019.9
2017-11-01T02:05:28.305Z,1019.89
2017-11-01T02:06:50.196Z,1019.89
2017-11-01T02:08:12.446Z,1019.88
2017-11-01T02:09:33.945Z,1019.86
2017-11-01T02:10:55.180Z,1019.82
2017-11-01T02:12:17.419Z,1019.8
2017-11-01T02:13:39.945Z,1019.85
2017-11-01T02:15:01.138Z,1019.81
2017-11-01T02:16:23.355Z,1019.84
2017-11-01T02:17:45.531Z,1019.83
2017-11-01T02:19:07.141Z,1019.83
2017-11-01T02:20:28.655Z,1019.8
2017-11-01T02:21:51.185Z,1019.81
2017-11-01T02:23:13.424Z,1019.78
2017-11-01T02:24:36.258Z,1019.72
2017-11-01T02:25:58.426Z,1019.69
2017-11-01T02:27:20.956Z,1019.72
2017-11-01T02:28:42.806Z,1019.75
2017-11-01T02:30:04.661Z,1019.69
2017-11-01T02:31:26.510Z,1019.68
2017-11-01T02:32:48.494Z,1019.67
2017-11-01T02:34:10.669Z,1019.69
2017-11-01T02:35:32.512Z,1019.68
2017-11-01T02:36:54.473Z,1019.63
2017-11-01T02:38:16.974Z,1019.67
2017-11-01T02:39:38.907Z,1019.64
2017-11-01T02:41:01.386Z,1019.68
2017-11-01T02:42:23.565Z,1019.69
2017-11-01T02:43:45.092Z,1019.66
2017-11-01T02:45:07.295Z,1019.61
2017-11-01T02:46:28.815Z,1019.58
2017-11-01T02:47:51.325Z,1019.61
2017-11-01T02:49:13.188Z,1019.57
2017-11-01T02:50:35.016Z,1019.55
2017-11-01T02:51:57.237Z,1019.56
2017-11-01T02:53:19.529Z,1019.54
2017-11-01T02:54:42.046Z,1019.54
2017-11-01T02:56:04.246Z,1019.51
2017-11-01T02:57:25.794Z,1019.47
2017-11-01T02:58:47.394Z,1019.46
2017-11-01T03:00:09.236Z,1019.46
2017-11-01T03:01:31.430Z,1019.48
2017-11-01T03:02:53.623Z,1019.51
2017-11-01T03:04:15.816Z,1019.52
2017-11-01T03:05:38.023Z,1019.5
2017-11-01T03:07:00.204Z,1019.51
2017-11-01T03:08:22.076Z,1019.51
2017-11-01T03:09:44.039Z,1019.47
2017-11-01T03:11:05.553Z,1019.49
2017-11-01T03:12:27.055Z,1019.49
2017-11-01T03:13:48.870Z,1019.53
2017-11-01T03:15:10.757Z,1019.54
2017-11-01T03:16:32.739Z,1019.59
2017-11-01T03:17:54.620Z,1019.53
2017-11-01T03:19:17.214Z,1019.61
2017-11-01T03:20:39.070Z,1019.62
2017-11-01T03:22:01.235Z,1019.57
2017-11-01T03:23:23.425Z,1019.61
2017-11-01T03:24:44.926Z,1019.6
2017-11-01T03:26:06.786Z,1019.58
2017-11-01T03:27:29.038Z,1019.57
2017-11-01T03:28:50.873Z,1019.53
2017-11-01T03:30:12.968Z,1019.5
2017-11-01T03:31:34.809Z,1019.48
2017-11-01T03:32:57.018Z,1019.53
2017-11-01T03:34:18.554Z,1019.47
2017-11-01T03:35:40.496Z,1019.45
2017-11-01T03:37:02.345Z,1019.43
2017-11-01T03:38:24.522Z,1019.46
2017-11-01T03:39:46.471Z,1019.43
2017-11-01T03:41:08.287Z,1019.47
2017-11-01T03:42:30.777Z,1019.49
2017-11-01T03:43:52.292Z,1019.46
2017-11-01T03:45:14.196Z,1019.43
2017-11-01T03:46:36.015Z,1019.46
2017-11-01T03:47:58.568Z,1019.4
2017-11-01T03:49:20.063Z,1019.4
2017-11-01T03:50:41.969Z,1019.43
2017-11-01T03:52:04.135Z,1019.41
2017-11-01T03:53:25.966Z,1019.4
2017-11-01T03:54:47.856Z,1019.38
2017-11-01T03:56:10.044Z,1019.38
2017-11-01T03:57:32.641Z,1019.39
2017-11-01T03:58:54.497Z,1019.42
2017-11-01T04:00:16.681Z,1019.45
2017-11-01T04:01:38.865Z,1019.42
2017-11-01T04:03:01.033Z,1019.41
2017-11-01T04:04:22.885Z,1019.43
2017-11-01T04:05:45.404Z,1019.34
2017-11-01T04:07:06.922Z,1019.34
2017-11-01T04:08:29.738Z,1019.38
2017-11-01T04:09:52.444Z,1019.38
2017-11-01T04:11:14.305Z,1019.45
2017-11-01T04:12:35.858Z,1019.39
2017-11-01T04:13:58.075Z,1019.43
2017-11-01T04:15:19.940Z,1019.38
2017-11-01T04:16:42.143Z,1019.36
2017-11-01T04:18:03.999Z,1019.36
2017-11-01T04:19:25.759Z,1019.3
2017-11-01T04:20:47.942Z,1019.31
2017-11-01T04:22:09.936Z,1019.22
2017-11-01T04:23:31.766Z,1019.29
2017-11-01T04:24:53.580Z,1019.33
2017-11-01T04:26:14.757Z,1019.33
2017-11-01T04:27:36.944Z,1019.31
2017-11-01T04:28:58.454Z,1019.3
2017-11-01T04:30:21.373Z,1019.37
2017-11-01T04:31:42.897Z,1019.33
2017-11-01T04:33:04.749Z,1019.32
2017-11-01T04:34:26.624Z,1019.32
2017-11-01T04:35:48.474Z,1019.29
2017-11-01T04:37:10.011Z,1019.29
2017-11-01T04:38:31.868Z,1019.3
2017-11-01T04:39:54.048Z,1019.34
2017-11-01T04:41:15.637Z,1019.36
2017-11-01T04:42:38.153Z,1019.34
2017-11-01T04:43:59.750Z,1019.4
2017-11-01T04:45:22.333Z,1019.45
2017-11-01T04:46:44.493Z,1019.45
2017-11-01T04:48:06.666Z,1019.44
2017-11-01T04:49:28.834Z,1019.45
2017-11-01T04:50:50.365Z,1019.37
2017-11-01T04:52:12.514Z,1019.38
2017-11-01T04:53:34.393Z,1019.39
2017-11-01T04:54:56.334Z,1019.34
2017-11-01T04:56:18.520Z,1019.41
2017-11-01T04:57:40.044Z,1019.38
2017-11-01T04:59:02.277Z,1019.38
2017-11-01T05:00:24.106Z,1019.35
2017-11-01T05:01:46.282Z,1019.37
2017-11-01T05:03:07.800Z,1019.41
2017-11-01T05:04:29.655Z,1019.34
2017-11-01T05:05:51.820Z,1019.36
2017-11-01T05:07:14.002Z,1019.36
2017-11-01T05:08:36.194Z,1019.41
2017-11-01T05:09:58.420Z,1019.37
2017-11-01T05:11:20.926Z,1019.38
2017-11-01T05:12:43.439Z,1019.4
2017-11-01T05:14:04.959Z,1019.4
2017-11-01T05:15:27.135Z,1019.42
2017-11-01T05:16:49.769Z,1019.4
2017-11-01T05:18:11.285Z,1019.38
2017-11-01T05:19:33.454Z,1019.36
2017-11-01T05:20:55.295Z,1019.41
2017-11-01T05:22:17.123Z,1019.39
2017-11-01T05:23:38.975Z,1019.41
2017-11-01T05:25:01.149Z,1019.4
2017-11-01T05:26:23.015Z,1019.4
2017-11-01T05:27:45.235Z,1019.41
2017-11-01T05:29:07.140Z,1019.38
2017-11-01T05:30:29.287Z,1019.43
2017-11-01T05:31:51.805Z,1019.39
2017-11-01T05:33:14.302Z,1019.4
2017-11-01T05:34:36.522Z,1019.39
2017-11-01T05:35:58.031Z,1019.42
2017-11-01T05:37:20.252Z,1019.44
2017-11-01T05:38:42.160Z,1019.43
2017-11-01T05:40:03.994Z,1019.45
2017-11-01T05:41:26.183Z,1019.41
2017-11-01T05:42:48.191Z,1019.4
2017-11-01T05:44:10.343Z,1019.41
2017-11-01T05:45:32.534Z,1019.41
2017-11-01T05:46:55.602Z,1019.44
2017-11-01T05:48:17.158Z,1019.41
2017-11-01T05:49:39.367Z,1019.44
2017-11-01T05:51:00.934Z,1019.49
2017-11-01T05:52:23.454Z,1019.46
2017-11-01T05:53:45.633Z,1019.45
2017-11-01T05:55:08.154Z,1019.46
2017-11-01T05:56:30.340Z,1019.37
2017-11-01T05:57:52.193Z,1019.39
2017-11-01T05:59:14.046Z,1019.44
2017-11-01T06:00:35.890Z,1019.38
2017-11-01T06:01:57.752Z,1019.44
2017-11-01T06:03:20.265Z,1019.44
2017-11-01T06:04:42.895Z,1019.51
2017-11-01T06:06:04.797Z,1019.49
2017-11-01T06:07:26.984Z,1019.49
2017-11-01T06:08:49.162Z,1019.52
2017-11-01T06:10:11.686Z,1019.47
2017-11-01T06:11:33.553Z,1019.45
2017-11-01T06:12:56.064Z,1019.52
2017-11-01T06:14:17.953Z,1019.5
2017-11-01T06:15:40.213Z,1019.48
2017-11-01T06:17:02.723Z,1019.53
2017-11-01T06:18:24.892Z,1019.56
2017-11-01T06:19:46.737Z,1019.48
2017-11-01T06:21:08.923Z,1019.49
2017-11-01T06:22:29.768Z,1019.57
2017-11-01T06:23:52.083Z,1019.56
2017-11-01T06:25:14.192Z,1019.57
2017-11-01T06:26:36.375Z,1019.58
2017-11-01T06:27:58.303Z,1019.63
2017-11-01T06:29:20.505Z,1019.55
2017-11-01T06:30:42.685Z,1019.71
2017-11-01T06:32:04.582Z,1019.69
2017-11-01T06:33:26.450Z,1019.69
2017-11-01T06:34:48.313Z,1019.65
2017-11-01T06:36:10.443Z,1019.71
2017-11-01T06:37:32.283Z,1019.7
2017-11-01T06:38:54.794Z,1019.68
2017-11-01T06:40:16.978Z,1019.67
2017-11-01T06:41:38.872Z,1019.71
2017-11-01T06:43:01.052Z,1019.68
2017-11-01T06:44:23.702Z,1019.71
2017-11-01T06:45:45.564Z,1019.73
2017-11-01T06:47:07.782Z,1019.71
2017-11-01T06:48:29.985Z,1019.72
2017-11-01T06:49:51.624Z,1019.75
2017-11-01T06:51:14.138Z,1019.77
2017-11-01T06:52:36.323Z,1019.78
2017-11-01T06:53:58.837Z,1019.78
2017-11-01T06:55:20.356Z,1019.88
2017-11-01T06:56:42.874Z,1019.82
2017-11-01T06:58:05.101Z,1019.89
2017-11-01T06:59:27.336Z,1019.84
2017-11-01T07:00:49.323Z,1019.92
2017-11-01T07:02:11.424Z,1019.94
2017-11-01T07:03:33.625Z,1019.95
2017-11-01T07:04:55.810Z,1019.92
2017-11-01T07:06:18.154Z,1019.96
2017-11-01T07:07:40.343Z,1020
2017-11-01T07:09:02.552Z,1019.99
2017-11-01T07:10:24.739Z,1019.95
2017-11-01T07:11:46.734Z,1019.97
2017-11-01T07:13:09.263Z,1020.01
2017-11-01T07:14:31.423Z,1020.01
2017-11-01T07:15:53.595Z,1020.02
2017-11-01T07:17:15.763Z,1020.05
2017-11-01T07:18:38.333Z,1020.11
2017-11-01T07:19:59.902Z,1020.14
2017-11-01T07:21:22.092Z,1020.13
2017-11-01T07:22:43.963Z,1020.16
2017-11-01T07:24:06.144Z,1020.15
2017-11-01T07:25:28.375Z,1020.15
2017-11-01T07:26:50.333Z,1020.22
2017-11-01T07:28:12.873Z,1020.2
2017-11-01T07:29:34.361Z,1020.19
2017-11-01T07:30:56.302Z,1020.24
2017-11-01T07:32:18.161Z,1020.19
2017-11-01T07:33:40.332Z,1020.15
2017-11-01T07:35:02.513Z,1020.17
2017-11-01T07:36:24.680Z,1020.17
2017-11-01T07:37:46.206Z,1020.15
2017-11-01T07:39:08.071Z,1020.13
2017-11-01T07:40:29.575Z,1020.14
2017-11-01T07:41:51.477Z,1020.08
2017-11-01T07:43:13.676Z,1020.07
2017-11-01T07:44:35.863Z,1020.01
2017-11-01T07:45:58.034Z,1020.06
2017-11-01T07:47:20.447Z,1020.04
2017-11-01T07:48:43.031Z,1020.05
2017-11-01T07:50:04.894Z,1020.05
2017-11-01T07:51:27.454Z,1020.09
2017-11-01T07:52:49.064Z,1020.13
2017-11-01T07:54:10.956Z,1020.11
2017-11-01T07:55:33.127Z,1020.18
2017-11-01T07:56:55.343Z,1020.15
2017-11-01T07:58:17.293Z,1020.21
2017-11-01T07:59:39.484Z,1020.22
2017-11-01T08:01:01.985Z,1020.17
2017-11-01T08:02:24.245Z,1020.15
2017-11-01T08:03:46.750Z,1020.17
2017-11-01T08:05:08.924Z,1020.15
2017-11-01T08:06:31.095Z,1020.17
2017-11-01T08:07:52.942Z,1020.18
2017-11-01T08:09:15.073Z,1020.15
2017-11-01T08:10:37.329Z,1020.18
2017-11-01T08:11:59.500Z,1020.15
2017-11-01T08:13:21.336Z,1020.12
2017-11-01T08:14:43.280Z,1020.15
2017-11-01T08:16:05.516Z,1020.16
2017-11-01T08:17:27.384Z,1020.15
2017-11-01T08:18:49.215Z,1020.21
2017-11-01T08:20:11.082Z,1020.16
2017-11-01T08:21:33.591Z,1020.14
2017-11-01T08:22:55.496Z,1020.16
2017-11-01T08:24:17.362Z,1020.15
2017-11-01T08:25:39.219Z,1020.14
2017-11-01T08:27:01.743Z,1020.17
2017-11-01T08:28:23.924Z,1020.14
2017-11-01T08:29:45.427Z,1020.11
2017-11-01T08:31:07.643Z,1020.12
2017-11-01T08:32:29.532Z,1020.18
2017-11-01T08:33:52.045Z,1020.2
2017-11-01T08:35:13.904Z,1020.2
2017-11-01T08:36:35.764Z,1020.24
2017-11-01T08:37:57.335Z,1020.19
2017-11-01T08:39:19.189Z,1020.19
2017-11-01T08:40:41.444Z,1020.19
2017-11-01T08:42:02.944Z,1020.19
2017-11-01T08:43:24.796Z,1020.16
2017-11-01T08:44:46.668Z,1020.17
2017-11-01T08:46:08.848Z,1020.15
2017-11-01T08:47:30.712Z,1020.18
2017-11-01T08:48:52.623Z,1020.15
2017-11-01T08:50:14.832Z,1020.17
2017-11-01T08:51:37.376Z,1020.19
2017-11-01T08:52:59.872Z,1020.19
2017-11-01T08:54:22.491Z,1020.19
2017-11-01T08:55:44.329Z,1020.22
2017-11-01T08:57:06.581Z,1020.26
2017-11-01T08:58:28.474Z,1020.22
2017-11-01T08:59:50.651Z,1020.25
2017-11-01T09:01:12.214Z,1020.24
2017-11-01T09:02:34.055Z,1020.22
2017-11-01T09:03:56.272Z,1020.18
2017-11-01T09:05:18.796Z,1020.21
2017-11-01T09:06:41.048Z,1020.28
2017-11-01T09:08:02.914Z,1020.27
2017-11-01T09:09:25.459Z,1020.28
2017-11-01T09:10:47.390Z,1020.29
2017-11-01T09:12:09.638Z,1020.28
2017-11-01T09:13:31.837Z,1020.26
2017-11-01T09:14:53.663Z,1020.28
2017-11-01T09:16:16.001Z,1020.26
2017-11-01T09:17:37.844Z,1020.31
2017-11-01T09:18:59.685Z,1020.31
2017-11-01T09:20:22.636Z,1020.25
2017-11-01T09:21:44.180Z,1020.28
2017-11-01T09:23:06.703Z,1020.22
2017-11-01T09:24:28.886Z,1020.22
2017-11-01T09:25:50.410Z,1020.26
2017-11-01T09:27:12.624Z,1020.27
2017-11-01T09:28:34.838Z,1020.28
2017-11-01T09:29:57.024Z,1020.28
2017-11-01T09:31:18.805Z,1020.23
2017-11-01T09:32:40.331Z,1020.27
2017-11-01T09:34:02.269Z,1020.28
2017-11-01T09:35:25.103Z,1020.27
2017-11-01T09:36:49.248Z,1020.23
2017-11-01T09:38:10.969Z,1020.24
2017-11-01T09:39:33.161Z,1020.26
2017-11-01T09:40:54.685Z,1020.29
2017-11-01T09:42:16.634Z,1020.28
2017-11-01T09:43:38.811Z,1020.28
2017-11-01T09:45:00.666Z,1020.26
2017-11-01T09:46:22.529Z,1020.32
2017-11-01T09:47:44.703Z,1020.31
2017-11-01T09:49:07.336Z,1020.31
2017-11-01T09:50:29.522Z,1020.34
2017-11-01T09:51:52.304Z,1020.32
2017-11-01T09:53:14.835Z,1020.31
2017-11-01T09:54:36.692Z,1020.38
2017-11-01T09:55:58.549Z,1020.34
2017-11-01T09:57:20.749Z,1020.33
2017-11-01T09:58:42.614Z,1020.31
2017-11-01T10:00:04.472Z,1020.33
2017-11-01T10:01:28.458Z,1020.29
2017-11-01T10:02:50.644Z,1020.28
2017-11-01T10:04:12.868Z,1020.3
2017-11-01T10:05:35.060Z,1020.32
2017-11-01T10:06:57.244Z,1020.28
2017-11-01T10:08:19.429Z,1020.28
2017-11-01T10:09:41.869Z,1020.24
2017-11-01T10:11:03.767Z,1020.24
2017-11-01T10:12:25.256Z,1020.22
2017-11-01T10:13:47.775Z,1020.19
2017-11-01T10:15:10.936Z,1020.14
2017-11-01T10:16:33.996Z,1020.18
2017-11-01T10:17:56.168Z,1020.18
2017-11-01T10:19:18.017Z,1020.24
2017-11-01T10:20:39.534Z,1020.2
2017-11-01T10:22:01.715Z,1020.28
2017-11-01T10:23:23.953Z,1020.28
2017-11-01T10:24:45.793Z,1020.28
2017-11-01T10:26:07.032Z,1020.26
2017-11-01T10:27:29.533Z,1020.22
2017-11-01T10:28:51.765Z,1020.21
2017-11-01T10:30:13.294Z,1020.18
2017-11-01T10:31:35.823Z,1020.19
2017-11-01T10:32:57.683Z,1020.21
2017-11-01T10:34:19.531Z,1020.16
2017-11-01T10:35:41.702Z,1020.18
2017-11-01T10:37:03.886Z,1020.13
2017-11-01T10:38:29.124Z,1020.13
2017-11-01T10:39:51.354Z,1020.11
2017-11-01T10:41:13.205Z,1020.1
2017-11-01T10:42:35.768Z,1020.04
2017-11-01T10:43:57.607Z,1020.04
2017-11-01T10:45:20.129Z,1020.13
2017-11-01T10:46:42.324Z,1020.07
2017-11-01T10:48:04.291Z,1020.06
2017-11-01T10:49:25.803Z,1019.99
2017-11-01T10:50:47.331Z,1020.03
2017-11-01T10:52:09.187Z,1020
2017-11-01T10:53:31.354Z,1020
2017-11-01T10:54:53.967Z,1019.94
2017-11-01T10:56:16.182Z,1019.94
2017-11-01T10:57:38.714Z,1019.91
2017-11-01T10:59:00.810Z,1019.89
2017-11-01T11:00:23.170Z,1019.86
2017-11-01T11:01:45.024Z,1019.85
2017-11-01T11:03:07.195Z,1019.89
2017-11-01T11:04:29.712Z,1019.87
2017-11-01T11:05:51.893Z,1019.88
2017-11-01T11:07:13.405Z,1019.86
2017-11-01T11:08:35.914Z,1019.92
2017-11-01T11:09:58.077Z,1019.86
2017-11-01T11:11:20.325Z,1019.88
2017-11-01T11:12:41.534Z,1019.86
2017-11-01T11:14:03.396Z,1019.81
2017-11-01T11:15:25.582Z,1019.87
2017-11-01T11:16:47.435Z,1019.84
2017-11-01T11:18:09.613Z,1019.82
2017-11-01T11:19:31.847Z,1019.79
2017-11-01T11:20:54.354Z,1019.84
2017-11-01T11:22:16.224Z,1019.78
2017-11-01T11:23:38.406Z,1019.82
2017-11-01T11:25:00.256Z,1019.77
2017-11-01T11:26:22.359Z,1019.68
2017-11-01T11:27:44.565Z,1019.69
2017-11-01T11:29:07.166Z,1019.67
2017-11-01T11:30:29.459Z,1019.73
2017-11-01T11:31:51.346Z,1019.67
2017-11-01T11:33:12.862Z,1019.62
2017-11-01T11:34:34.704Z,1019.63
2017-11-01T11:35:57.203Z,1019.63
2017-11-01T11:37:19.382Z,1019.6
2017-11-01T11:38:41.267Z,1019.65
2017-11-01T11:40:03.473Z,1019.61
2017-11-01T11:41:25.662Z,1019.59
2017-11-01T11:42:47.543Z,1019.59
2017-11-01T11:44:09.153Z,1019.52
2017-11-01T11:45:30.674Z,1019.52
2017-11-01T11:46:52.876Z,1019.54
2017-11-01T11:48:15.700Z,1019.5
2017-11-01T11:49:38.233Z,1019.54
2017-11-01T11:51:00.783Z,1019.5
2017-11-01T11:52:22.634Z,1019.51
2017-11-01T11:53:45.153Z,1019.51
2017-11-01T11:55:06.671Z,1019.5
2017-11-01T11:56:29.194Z,1019.49
2017-11-01T11:57:51.143Z,1019.49
2017-11-01T11:59:13.067Z,1019.55
2017-11-01T12:00:34.949Z,1019.56
2017-11-01T12:01:57.128Z,1019.57
2017-11-01T12:03:19.087Z,1019.55
2017-11-01T12:04:41.721Z,1019.49
2017-11-01T12:06:03.913Z,1019.44
2017-11-01T12:07:25.425Z,1019.49
2017-11-01T12:08:47.624Z,1019.44
2017-11-01T12:10:09.820Z,1019.49
2017-11-01T12:11:32.044Z,1019.49
2017-11-01T12:12:54.245Z,1019.49
2017-11-01T12:14:15.757Z,1019.42
2017-11-01T12:15:37.966Z,1019.43
2017-11-01T12:17:00.534Z,1019.38
2017-11-01T12:18:22.452Z,1019.4
2017-11-01T12:19:44.653Z,1019.37
2017-11-01T12:21:06.525Z,1019.37
2017-11-01T12:22:28.737Z,1019.37
2017-11-01T12:23:51.370Z,1019.38
2017-11-01T12:25:13.242Z,1019.43
2017-11-01T12:26:34.774Z,1019.41
2017-11-01T12:27:56.317Z,1019.43
2017-11-01T12:29:18.561Z,1019.42
2017-11-01T12:30:41.085Z,1019.42
2017-11-01T12:32:03.336Z,1019.44
2017-11-01T12:33:25.197Z,1019.44
2017-11-01T12:34:46.710Z,1019.43
2017-11-01T12:36:08.576Z,1019.43
2017-11-01T12:37:30.433Z,1019.5
2017-11-01T12:38:52.678Z,1019.43
2017-11-01T12:40:14.222Z,1019.31
2017-11-01T12:41:36.176Z,1019.32
2017-11-01T12:42:58.454Z,1019.33
2017-11-01T12:44:20.428Z,1019.3
2017-11-01T12:45:42.288Z,1019.26
2017-11-01T12:47:04.543Z,1019.34
2017-11-01T12:48:26.724Z,1019.33
2017-11-01T12:49:48.580Z,1019.29
2017-11-01T12:51:11.113Z,1019.28
2017-11-01T12:52:33.655Z,1019.3
2017-11-01T12:53:55.884Z,1019.31
2017-11-01T12:55:18.088Z,1019.32
2017-11-01T12:56:39.937Z,1019.29
2017-11-01T12:58:01.783Z,1019.25
2017-11-01T12:59:23.964Z,1019.26
2017-11-01T13:00:45.903Z,1019.26
2017-11-01T13:02:08.096Z,1019.3
2017-11-01T13:03:30.624Z,1019.24
2017-11-01T13:04:53.319Z,1019.19
2017-11-01T13:06:15.522Z,1019.27
2017-11-01T13:07:37.044Z,1019.31
2017-11-01T13:08:58.895Z,1019.26
2017-11-01T13:10:21.094Z,1019.15
2017-11-01T13:11:43.687Z,1019.13
2017-11-01T13:13:05.927Z,1019.06
2017-11-01T13:14:27.766Z,1019.01
2017-11-01T13:15:49.944Z,1018.97
2017-11-01T13:17:12.223Z,1019
2017-11-01T13:18:34.087Z,1019.03
2017-11-01T13:19:56.621Z,1018.97
2017-11-01T13:21:19.166Z,1019.04
2017-11-01T13:22:41.041Z,1018.97
2017-11-01T13:24:02.644Z,1019.05
2017-11-01T13:25:24.812Z,1019.03
2017-11-01T13:26:47.047Z,1019.1
2017-11-01T13:28:08.940Z,1019.09
2017-11-01T13:29:31.266Z,1019.1
2017-11-01T13:30:53.772Z,1019.08
2017-11-01T13:32:15.895Z,1019.06
2017-11-01T13:33:38.418Z,1019.02
2017-11-01T13:34:59.943Z,1018.99
2017-11-01T13:36:21.556Z,1019.02
2017-11-01T13:37:43.398Z,1018.95
2017-11-01T13:39:04.697Z,1018.96
2017-11-01T13:40:27.213Z,1018.95
2017-11-01T13:41:49.424Z,1018.94
2017-11-01T13:43:11.955Z,1018.96
2017-11-01T13:44:33.939Z,1018.9
2017-11-01T13:45:55.783Z,1018.9
2017-11-01T13:47:17.989Z,1018.86
2017-11-01T13:48:40.525Z,1018.92
2017-11-01T13:50:02.082Z,1018.9
2017-11-01T13:51:24.294Z,1018.92
2017-11-01T13:52:46.491Z,1018.88
2017-11-01T13:54:09.032Z,1018.87
2017-11-01T13:55:30.893Z,1018.89
2017-11-01T13:56:52.147Z,1018.84
2017-11-01T13:58:14.019Z,1018.86
2017-11-01T13:59:36.566Z,1018.82
2017-11-01T14:00:59.172Z,1018.88
2017-11-01T14:02:20.740Z,1018.83
2017-11-01T14:03:42.917Z,1018.83
2017-11-01T14:05:05.450Z,1018.83
2017-11-01T14:06:27.953Z,1018.83
2017-11-01T14:07:49.810Z,1018.76
2017-11-01T14:09:11.696Z,1018.81
2017-11-01T14:10:34.292Z,1018.8
2017-11-01T14:11:56.494Z,1018.78
2017-11-01T14:13:19.024Z,1018.75
2017-11-01T14:14:40.873Z,1018.67
2017-11-01T14:16:02.742Z,1018.63
2017-11-01T14:17:23.933Z,1018.61
2017-11-01T14:18:46.123Z,1018.62
2017-11-01T14:20:08.019Z,1018.59
2017-11-01T14:21:30.554Z,1018.59
2017-11-01T14:22:53.102Z,1018.62
2017-11-01T14:24:14.960Z,1018.58
2017-11-01T14:25:36.832Z,1018.55
2017-11-01T14:26:59.404Z,1018.55
2017-11-01T14:28:21.599Z,1018.5
2017-11-01T14:29:44.115Z,1018.53
2017-11-01T14:31:06.293Z,1018.59
2017-11-01T14:32:27.845Z,1018.62
2017-11-01T14:33:50.354Z,1018.55
2017-11-01T14:35:12.884Z,1018.52
2017-11-01T14:36:35.164Z,1018.48
2017-11-01T14:37:57.752Z,1018.44
2017-11-01T14:39:19.339Z,1018.48
2017-11-01T14:40:41.544Z,1018.6
2017-11-01T14:42:03.757Z,1018.58
2017-11-01T14:43:25.643Z,1018.6
2017-11-01T14:44:47.524Z,1018.59
2017-11-01T14:46:09.733Z,1018.58
2017-11-01T14:47:31.588Z,1018.58
2017-11-01T14:48:53.886Z,1018.64
2017-11-01T14:50:16.443Z,1018.61
2017-11-01T14:51:38.296Z,1018.64
2017-11-01T14:53:00.210Z,1018.62
2017-11-01T14:54:22.065Z,1018.61
2017-11-01T14:55:44.587Z,1018.56
2017-11-01T14:57:06.479Z,1018.59
2017-11-01T14:58:28.803Z,1018.53
2017-11-01T14:59:51.028Z,1018.55
2017-11-01T15:01:13.216Z,1018.6
2017-11-01T15:02:35.749Z,1018.56
2017-11-01T15:03:57.794Z,1018.57
2017-11-01T15:05:20.286Z,1018.61
2017-11-01T15:06:41.813Z,1018.64
2017-11-01T15:08:04.355Z,1018.61
2017-11-01T15:09:26.213Z,1018.61
2017-11-01T15:10:48.752Z,1018.55
2017-11-01T15:12:10.304Z,1018.57
2017-11-01T15:13:32.497Z,1018.54
2017-11-01T15:14:54.696Z,1018.48
2017-11-01T15:16:17.324Z,1018.39
2017-11-01T15:17:39.192Z,1018.33
2017-11-01T15:19:01.308Z,1018.28
2017-11-01T15:20:23.496Z,1018.33
2017-11-01T15:21:45.697Z,1018.31
2017-11-01T15:23:07.905Z,1018.27
2017-11-01T15:24:29.802Z,1018.17
2017-11-01T15:25:52.382Z,1018.15
2017-11-01T15:27:14.651Z,1018.2
2017-11-01T15:28:37.163Z,1018.11
2017-11-01T15:29:59.692Z,1018.09
2017-11-01T15:31:21.546Z,1018.02
2017-11-01T15:32:43.735Z,1018.09
2017-11-01T15:34:06.262Z,1018.14
2017-11-01T15:35:28.512Z,1018.16
2017-11-01T15:36:50.706Z,1018.12
2017-11-01T15:38:13.237Z,1018.1
2017-11-01T15:39:35.105Z,1018.12
2017-11-01T15:40:57.636Z,1018.12
2017-11-01T15:42:19.845Z,1018.11
2017-11-01T15:43:42.374Z,1018.18
2017-11-01T15:45:04.567Z,1018.16
2017-11-01T15:46:27.178Z,1018.06
2017-11-01T15:47:48.764Z,1018.01
2017-11-01T15:49:10.652Z,1017.95
2017-11-01T15:50:33.197Z,1017.92
2017-11-01T15:51:55.414Z,1017.97
2017-11-01T15:53:17.272Z,1017.95
2017-11-01T15:54:39.502Z,1017.91
2017-11-01T15:56:01.814Z,1017.82
2017-11-01T15:57:24.387Z,1017.76
2017-11-01T15:58:46.591Z,1017.68
2017-11-01T16:00:09.142Z,1017.71
2017-11-01T16:01:31.775Z,1017.71
2017-11-01T16:02:54.281Z,1017.75
2017-11-01T16:04:16.817Z,1017.78
2017-11-01T16:05:39.344Z,1017.88
2017-11-01T16:07:01.889Z,1017.98
2017-11-01T16:08:24.115Z,1017.95
2017-11-01T16:09:46.126Z,1017.93
2017-11-01T16:11:08.672Z,1017.93
2017-11-01T16:12:30.575Z,1017.92
2017-11-01T16:13:52.798Z,1017.87
2017-11-01T16:15:15.349Z,1017.8
2017-11-01T16:16:37.866Z,1017.76
2017-11-01T16:18:00.440Z,1017.74
2017-11-01T16:19:22.270Z,1017.83
2017-11-01T16:20:44.473Z,1017.84
2017-11-01T16:22:07.025Z,1017.66
2017-11-01T16:23:29.216Z,1017.76
2017-11-01T16:24:51.761Z,1017.8
2017-11-01T16:26:13.991Z,1017.84
2017-11-01T16:27:36.515Z,1017.87
2017-11-01T16:28:59.145Z,1017.94
2017-11-01T16:30:21.360Z,1018
2017-11-01T16:31:43.647Z,1017.95
2017-11-01T16:33:06.236Z,1017.98
2017-11-01T16:34:28.526Z,1017.94
2017-11-01T16:35:50.743Z,1017.94
2017-11-01T16:37:13.289Z,1017.93